Waterloo, New York
Current Conditions -  °F | °C
As of 9:53 PM on Monday 20 Oct 2014 (Local Time) from KPEO Reporting Station
Moderate Rain Moderate Rain  
Wind Chill: 50°   Ceiling: 5000
Heat Index: 50°   Visibility: 4mi
Dew Point: 43°   Wind: 6mph
Humidity: 77%   Direction: 200°SSW
Pressure: 29.87"   Gusts: NA
Location:  42.9°N, 76.86°W
Report Text: KPEO 210153Z AUTO 20005KT 4SM RA OVC050 10/06 A2987 RMK AO2 SLP119 P0004 T01000061
Loading
Personal Weather Stations






























Interactive Weather Map
Tropical Storm Tracking
New forecast layout! Learn more

10-Day Weather Forecast

Advertisements
Track Severe Weather on mobile